Weather reports worldwide

Advertisment
Arroyo Del Ojanco, Spain (8352): temperature & dewpoint: 19.08.2019 07:00:00 - 25.08.2019 07:00:00 (CEST)Arroyo Del Ojanco, Spain (8352): wind speed & gusts: 19.08.2019 07:00:00 - 25.08.2019 07:00:00 (CEST)Arroyo Del Ojanco, Spain (8352): wind direction: 19.08.2019 07:00:00 - 25.08.2019 07:00:00 (CEST)Arroyo Del Ojanco, Spain (8352): precipitation: 19.08.2019 07:00:00 - 25.08.2019 07:00:00 (CEST)
Date & Time tt [°C] td [°C] ff [km/h] ff [kn] fx [km/h] fx [kn] dd rr [mm]
25.08.2019 07:00:00 20,5 20,3 0 0 6 3 N 0,0
25.08.2019 06:00:00 21,6 21,4 0 0 6 3 N 0,0
25.08.2019 05:00:00 22,2 22,0 0 0 11 6 NNE 0,0
25.08.2019 04:00:00 24,5 24,3 4 2 18 10 S 0,0
25.08.2019 03:00:00 24,9 24,7 9 5 15 8 S 0,0
25.08.2019 02:00:00 25,7 25,5 8 4 14 7 S -
25.08.2019 01:00:00 25,9 25,7 6 4 17 9 NNE 0,0
25.08.2019 00:00:00 27,8 27,6 5 3 24 13 NE 0,0
24.08.2019 23:00:00 28,8 28,6 10 5 20 11 ESE 0,0
24.08.2019 22:00:00 29,9 29,7 12 6 23 12 ESE 0,0
24.08.2019 21:00:00 31,2 31,0 12 6 27 15 E 0,0
24.08.2019 20:00:00 33,3 33,1 15 8 31 17 ENE -
24.08.2019 19:00:00 34,6 34,4 13 7 30 16 NE 0,0
24.08.2019 18:00:00 35,0 34,8 6 3 22 12 ENE 0,0
24.08.2019 17:00:00 34,7 34,5 11 6 26 14 NE 0,0
24.08.2019 16:00:00 34,4 34,2 11 6 29 16 NE 0,0
24.08.2019 15:00:00 34,4 34,2 9 5 28 15 NNE 0,0
24.08.2019 14:00:00 32,6 32,4 3 2 17 9 NNE -
24.08.2019 13:00:00 30,4 30,2 5 3 13 7 N 0,0
24.08.2019 12:00:00 28,0 27,8 3 1 10 6 N 0,0
24.08.2019 11:00:00 25,6 25,4 1 1 8 4 SE 0,0
24.08.2019 10:00:00 23,4 23,2 3 2 11 6 N 0,0
24.08.2019 09:00:00 21,3 21,1 1 1 6 3 NNE 0,0
24.08.2019 08:00:00 19,3 19,1 0 0 0 0 N -
24.08.2019 07:00:00 20,3 20,1 0 0 0 0 N 0,0
24.08.2019 06:00:00 21,1 20,9 0 0 0 0 N 0,0
24.08.2019 05:00:00 21,6 21,4 0 0 11 6 N 0,0
24.08.2019 04:00:00 23,2 23,0 6 4 13 7 S 0,0
24.08.2019 03:00:00 24,0 23,8 7 4 15 8 S 0,0
24.08.2019 02:00:00 24,3 24,1 1 1 12 6 SE -
24.08.2019 01:00:00 26,0 25,8 5 3 14 7 NE 0,0
24.08.2019 00:00:00 26,1 25,9 8 5 26 14 N 0,0
23.08.2019 23:00:00 27,9 27,7 18 10 35 19 ESE 0,0
23.08.2019 22:00:00 28,7 28,5 23 12 36 19 ESE 0,0
23.08.2019 21:00:00 30,9 30,7 9 5 20 11 ENE 0,0
23.08.2019 20:00:00 33,9 33,7 4 2 16 9 W -
23.08.2019 19:00:00 34,6 34,4 6 3 17 9 NNE 0,0
23.08.2019 18:00:00 34,4 34,2 2 1 21 12 N 0,0
23.08.2019 17:00:00 34,3 34,1 7 4 21 11 W 0,0
23.08.2019 16:00:00 33,3 33,1 1 1 17 9 NW 0,0
23.08.2019 15:00:00 32,1 31,9 8 5 15 8 WNW 0,0
23.08.2019 14:00:00 31,1 30,9 7 4 15 8 WNW -
23.08.2019 13:00:00 29,1 28,9 4 2 14 8 N 0,0
23.08.2019 12:00:00 27,4 27,2 5 3 14 8 W 0,0
23.08.2019 11:00:00 25,1 24,9 5 3 11 6 WSW 0,0
23.08.2019 10:00:00 23,7 23,5 4 2 8 4 WSW 0,0
23.08.2019 09:00:00 22,0 21,8 0 0 4 2 N 0,0
23.08.2019 08:00:00 20,0 19,8 0 0 8 4 NE -
23.08.2019 07:00:00 19,9 19,7 0 0 4 2 N 0,0
23.08.2019 06:00:00 20,8 20,6 0 0 6 4 N 0,0
23.08.2019 05:00:00 22,2 22,0 0 0 8 4 SSE 0,0
23.08.2019 04:00:00 23,6 23,4 2 1 11 6 S 0,0
23.08.2019 03:00:00 24,8 24,6 1 1 17 9 E 0,0
23.08.2019 02:00:00 25,8 25,6 9 5 22 12 ENE -
23.08.2019 01:00:00 26,3 26,1 5 3 22 12 E 0,0
23.08.2019 00:00:00 27,0 26,8 8 4 24 13 E 0,0
22.08.2019 23:00:00 27,8 27,6 1 1 17 9 E 0,0
22.08.2019 22:00:00 28,9 28,7 5 3 16 9 E 0,0
22.08.2019 21:00:00 30,2 30,0 13 7 27 15 ENE 0,0
22.08.2019 20:00:00 31,7 31,5 18 10 33 18 ENE -
22.08.2019 19:00:00 32,8 32,6 19 11 32 17 NE 0,0
22.08.2019 18:00:00 33,4 33,2 16 9 32 17 NE 0,0
22.08.2019 17:00:00 33,3 33,1 18 10 30 16 NNE 0,0
22.08.2019 16:00:00 33,3 33,1 13 7 28 15 NNE 0,0
22.08.2019 15:00:00 32,8 32,6 17 9 29 16 NE 0,0
22.08.2019 14:00:00 31,5 31,3 11 6 25 14 N -
22.08.2019 13:00:00 30,5 30,3 14 8 28 15 NNE 0,0
22.08.2019 12:00:00 28,8 28,6 14 8 24 13 NNE 0,0
22.08.2019 11:00:00 26,0 25,8 10 6 17 9 NNE 0,0
22.08.2019 10:00:00 23,2 23,0 9 5 16 9 NNE 0,0
22.08.2019 09:00:00 20,9 20,7 6 3 11 6 NE 0,0
22.08.2019 08:00:00 19,4 19,2 0 0 0 0 N -
22.08.2019 07:00:00 20,4 20,2 0 0 8 5 N 0,0
22.08.2019 06:00:00 21,1 20,9 2 1 9 5 SSE 0,0
22.08.2019 05:00:00 21,1 20,9 0 0 14 8 N 0,0
22.08.2019 04:00:00 22,0 21,8 4 2 12 7 SSW 0,0
22.08.2019 03:00:00 22,8 22,6 2 1 17 9 ENE 0,0
22.08.2019 02:00:00 23,4 23,2 6 3 16 9 ENE -
22.08.2019 01:00:00 24,4 24,2 10 6 16 9 NE 0,0
22.08.2019 00:00:00 24,8 24,6 8 4 26 14 NE 0,0
21.08.2019 23:00:00 25,2 25,0 8 4 19 10 NE 0,0
21.08.2019 22:00:00 26,6 26,4 1 1 27 15 ESE 0,0
21.08.2019 21:00:00 26,9 26,7 14 8 30 16 ESE 0,0
21.08.2019 20:00:00 27,9 27,7 3 2 33 18 E -
21.08.2019 19:00:00 27,7 27,5 23 12 39 21 NE 0,0
21.08.2019 18:00:00 26,8 26,6 20 11 44 24 NNE 0,0
21.08.2019 17:00:00 29,9 29,7 21 11 33 18 NNE 0,0
21.08.2019 16:00:00 32,0 31,8 3 2 16 9 S 0,0
21.08.2019 15:00:00 30,4 30,2 4 2 21 12 NE 0,0
21.08.2019 14:00:00 29,2 29,0 7 4 26 14 NNE -
21.08.2019 13:00:00 28,1 27,9 13 7 24 13 NE 0,0
21.08.2019 12:00:00 27,4 27,2 13 7 24 13 NE 0,0
21.08.2019 11:00:00 26,8 26,6 1 1 18 10 E 0,0
21.08.2019 10:00:00 25,7 25,5 8 4 13 7 NNE 0,0
21.08.2019 09:00:00 24,1 23,9 3 1 12 6 NNE 0,0
21.08.2019 08:00:00 22,1 21,9 0 0 5 3 ESE -
21.08.2019 07:00:00 22,6 22,4 0 0 8 4 SSE 0,0
21.08.2019 06:00:00 23,1 22,9 1 1 11 6 SSE 0,0
21.08.2019 05:00:00 23,8 23,6 9 5 14 7 ENE 0,0
21.08.2019 04:00:00 24,2 24,0 3 1 22 12 E 0,0
21.08.2019 03:00:00 24,7 24,5 6 3 22 12 NNE 0,0
21.08.2019 02:00:00 26,1 25,9 13 7 33 18 SE -
21.08.2019 01:00:00 26,2 26,0 16 9 28 15 SE 0,0
21.08.2019 00:00:00 25,5 25,3 6 3 27 14 NNE 0,0
20.08.2019 23:00:00 27,0 26,8 18 10 39 21 SE 0,0
20.08.2019 22:00:00 27,4 27,2 23 12 40 21 ESE 0,0
20.08.2019 21:00:00 31,4 31,2 10 5 13 7 SE 0,0
20.08.2019 20:00:00 32,5 32,3 5 3 13 7 SSW -
20.08.2019 19:00:00 33,4 33,2 8 5 16 9 SW 0,0
20.08.2019 18:00:00 33,6 33,4 8 4 22 12 WSW 0,0
20.08.2019 17:00:00 33,6 33,4 9 5 23 12 W 0,0
20.08.2019 16:00:00 32,8 32,6 11 6 27 14 W 0,0
20.08.2019 15:00:00 31,6 31,4 10 6 18 10 WNW 0,0
20.08.2019 14:00:00 30,5 30,3 7 4 16 9 WNW -
20.08.2019 13:00:00 28,2 28,0 7 4 14 8 W 0,0
20.08.2019 12:00:00 26,4 26,2 7 4 16 9 W 0,0
20.08.2019 11:00:00 25,9 25,7 5 3 13 7 SW 0,0
20.08.2019 10:00:00 24,7 24,5 0 0 6 4 E 0,0
20.08.2019 09:00:00 23,0 22,8 0 0 12 6 N 0,0
20.08.2019 08:00:00 21,5 21,3 4 2 - - S -
20.08.2019 07:00:00 22,4 22,2 6 3 10 6 S 0,0
20.08.2019 06:00:00 22,9 22,7 3 1 11 6 SW 0,0
20.08.2019 05:00:00 24,1 23,9 9 5 16 9 S 0,0
20.08.2019 04:00:00 24,9 24,7 7 4 108 59 SSW 0,0
20.08.2019 03:00:00 26,1 25,9 1 1 18 10 SW 0,0
20.08.2019 02:00:00 27,1 26,9 11 6 19 10 SSW -
20.08.2019 01:00:00 27,8 27,6 11 6 39 21 SSW 0,0
20.08.2019 00:00:00 28,3 28,1 8 4 18 10 S 0,0
19.08.2019 23:00:00 29,8 29,6 13 7 22 12 S 0,0
19.08.2019 22:00:00 30,3 30,1 13 7 22 12 S 0,0
19.08.2019 21:00:00 31,9 31,7 13 7 24 13 SW 0,0
19.08.2019 20:00:00 33,9 33,7 16 8 28 15 WSW -
19.08.2019 19:00:00 34,9 34,7 18 10 33 18 W 0,0
19.08.2019 18:00:00 35,7 35,5 14 8 32 17 W 0,0
19.08.2019 17:00:00 35,4 35,2 13 7 35 19 W 0,0
19.08.2019 16:00:00 35,2 35,0 17 9 29 15 SW 0,0
19.08.2019 15:00:00 33,5 33,3 14 8 28 15 WSW 0,0
19.08.2019 14:00:00 32,4 32,2 10 5 23 12 SW -
19.08.2019 13:00:00 30,1 29,9 10 5 20 11 W 0,0
19.08.2019 12:00:00 27,9 27,7 6 3 14 7 W 0,0
19.08.2019 11:00:00 26,2 26,0 4 2 10 5 WSW 0,0
19.08.2019 10:00:00 24,7 24,5 1 0 7 4 WNW 0,0
19.08.2019 09:00:00 22,7 22,5 0 0 1 0 N 0,0
19.08.2019 08:00:00 20,7 20,5 0 0 6 4 N -
19.08.2019 07:00:00 21,6 21,4 0 0 13 7 SW 0,0

tt = temperature
td = dewpoint
ff = wind speed
fx = gusts
dd = wind direction
rr = precipitation

Next stations